Time;durP1;ratioP1;P1;durP2;ratioP2;P2;SDS_P1;SDS_P2;PMS_P1;PMS_P2;Temp;Humidity;BMP_temperature;BMP_pressure;BME280_temperature;BME280_humidity;BME280_pressure;Samples;Min_cycle;Max_cycle;Signal;HPM_P1;HPM_P2
2024/02/25 00:02:23;;;;;;;1.80;0.93;;;7.90;99.90;;;;;;4932209;29;20280;-74
2024/02/25 00:04:49;;;;;;;1.80;0.90;;;7.80;99.90;;;;;;4932782;29;20196;-75
2024/02/25 00:07:15;;;;;;;1.80;0.80;;;7.90;99.90;;;;;;4932491;29;20671;-74
2024/02/25 00:09:40;;;;;;;1.90;0.90;;;7.90;99.90;;;;;;4932504;29;20219;-75
2024/02/25 00:12:06;;;;;;;2.20;1.00;;;8.00;99.90;;;;;;4932336;29;20181;-75
2024/02/25 00:14:32;;;;;;;2.03;1.00;;;7.90;99.90;;;;;;4933824;29;20748;-74
2024/02/25 00:16:58;;;;;;;1.80;0.80;;;8.00;99.90;;;;;;4933836;29;20621;-73
2024/02/25 00:19:24;;;;;;;1.60;1.20;;;8.00;99.90;;;;;;4933601;29;21210;-74
2024/02/25 00:21:49;;;;;;;2.77;0.90;;;8.00;99.90;;;;;;4933328;29;20303;-75
2024/02/25 00:24:17;;;;;;;2.90;0.90;;;8.00;99.90;;;;;;4933678;29;20191;-75
2024/02/25 00:26:42;;;;;;;1.77;0.95;;;8.10;99.90;;;;;;4933723;29;20192;-75
2024/02/25 00:29:14;;;;;;;2.07;0.80;;;8.10;99.90;;;;;;4932941;29;20205;-75
2024/02/25 00:31:40;;;;;;;2.20;0.80;;;8.10;99.90;;;;;;4925345;29;20224;-75
2024/02/25 00:34:06;;;;;;;1.50;0.80;;;8.10;99.90;;;;;;4932191;29;20173;-75
2024/02/25 00:36:32;;;;;;;3.27;1.10;;;8.20;99.90;;;;;;4932853;29;20184;-74
2024/02/25 00:38:57;;;;;;;1.67;1.00;;;8.20;99.90;;;;;;4932501;29;20545;-75
2024/02/25 00:41:23;;;;;;;4.77;2.53;;;8.30;99.90;;;;;;4932008;29;20180;-74
2024/02/25 00:43:49;;;;;;;4.70;2.50;;;8.30;99.90;;;;;;4932920;29;20219;-74
2024/02/25 00:46:14;;;;;;;3.60;2.00;;;8.30;99.90;;;;;;4933417;29;20212;-75
2024/02/25 00:48:40;;;;;;;2.07;1.30;;;8.30;99.90;;;;;;4932134;29;20557;-75
2024/02/25 00:51:06;;;;;;;2.67;1.63;;;8.20;99.90;;;;;;4915876;29;20263;-75
2024/02/25 00:53:32;;;;;;;3.10;1.73;;;8.20;99.90;;;;;;4915818;29;20232;-75
2024/02/25 00:55:58;;;;;;;5.45;2.22;;;8.20;99.90;;;;;;4933501;29;20214;-75
2024/02/25 00:58:24;;;;;;;4.00;1.50;;;8.20;99.90;;;;;;4933228;29;20185;-75
2024/02/25 01:00:50;;;;;;;4.23;1.80;;;8.30;99.90;;;;;;4932947;29;20539;-75
2024/02/25 01:03:15;;;;;;;2.53;1.67;;;8.30;99.90;;;;;;4932607;29;20212;-75
2024/02/25 01:05:41;;;;;;;2.13;1.17;;;8.20;99.90;;;;;;4933236;29;20195;-75
2024/02/25 01:08:08;;;;;;;1.97;0.90;;;8.20;99.90;;;;;;4931905;29;20553;-75
2024/02/25 01:10:34;;;;;;;2.85;0.70;;;8.20;99.90;;;;;;4931633;29;20212;-75
2024/02/25 01:12:59;;;;;;;2.60;0.80;;;8.20;99.90;;;;;;4931085;29;20184;-74
2024/02/25 01:15:25;;;;;;;1.90;1.00;;;8.30;99.90;;;;;;4931913;29;20260;-74
2024/02/25 01:17:51;;;;;;;2.53;1.07;;;8.30;99.90;;;;;;4931960;29;20631;-74
2024/02/25 01:20:16;;;;;;;2.37;0.90;;;8.30;99.90;;;;;;4932161;29;20238;-74
2024/02/25 01:22:42;;;;;;;1.97;0.70;;;8.30;99.90;;;;;;4931332;29;20287;-74
2024/02/25 01:25:08;;;;;;;2.00;0.70;;;8.30;99.90;;;;;;4933108;29;20181;-74
2024/02/25 01:27:34;;;;;;;2.17;0.93;;;8.30;99.90;;;;;;4932785;29;20184;-74
2024/02/25 01:30:00;;;;;;;2.38;0.80;;;8.30;99.90;;;;;;4931345;29;20652;-75
2024/02/25 01:32:26;;;;;;;3.80;1.25;;;8.20;99.90;;;;;;4931191;29;20279;-75
2024/02/25 01:34:52;;;;;;;3.60;1.30;;;8.20;99.90;;;;;;4933444;29;20256;-76
2024/02/25 01:37:19;;;;;;;4.53;0.90;;;8.20;99.90;;;;;;4932895;29;20189;-76
2024/02/25 01:39:45;;;;;;;2.65;0.85;;;8.30;99.90;;;;;;4931407;29;20221;-76
2024/02/25 01:42:10;;;;;;;2.23;0.90;;;8.30;99.90;;;;;;4931037;29;20185;-77
2024/02/25 01:44:56;;;;;;;1.73;0.80;;;8.30;99.90;;;;;;4933109;29;20236;-76
2024/02/25 01:47:22;;;;;;;4.35;0.80;;;8.30;99.90;;;;;;4933047;29;20193;-76
2024/02/25 01:49:48;;;;;;;1.50;0.77;;;8.30;99.90;;;;;;4933870;29;20220;-76
2024/02/25 01:52:14;;;;;;;2.17;1.20;;;8.30;99.90;;;;;;4936160;29;20176;-76
2024/02/25 01:54:40;;;;;;;1.75;0.70;;;8.30;99.90;;;;;;4935207;29;20248;-76
2024/02/25 01:57:07;;;;;;;2.13;0.90;;;8.30;99.90;;;;;;4954143;28;20181;-76
2024/02/25 01:59:33;;;;;;;1.50;0.60;;;8.30;99.90;;;;;;4935049;29;20229;-76
2024/02/25 02:01:59;;;;;;;2.03;0.88;;;8.30;99.90;;;;;;4935854;29;20299;-76
2024/02/25 02:04:25;;;;;;;1.70;0.90;;;8.30;99.90;;;;;;4934921;29;20604;-75
2024/02/25 02:06:51;;;;;;;1.70;0.80;;;8.30;99.90;;;;;;4936208;29;20185;-75
2024/02/25 02:09:16;;;;;;;1.77;0.70;;;8.30;99.90;;;;;;4918707;29;20211;-75
2024/02/25 02:11:54;;;;;;;2.40;0.80;;;8.30;99.90;;;;;;4918217;29;20608;-75
2024/02/25 02:14:20;;;;;;;1.73;0.70;;;8.40;99.90;;;;;;4935950;29;20188;-76
2024/02/25 02:16:45;;;;;;;1.83;0.90;;;8.40;99.90;;;;;;4934751;29;20705;-75
2024/02/25 02:19:11;;;;;;;2.40;0.70;;;8.40;99.90;;;;;;4935835;29;20682;-75
2024/02/25 02:21:37;;;;;;;1.60;0.70;;;8.40;99.90;;;;;;4935490;29;20666;-75
2024/02/25 02:24:02;;;;;;;1.30;0.67;;;8.40;99.90;;;;;;4948264;23;20225;-76
2024/02/25 02:26:28;;;;;;;1.73;0.80;;;8.40;99.90;;;;;;4915260;29;20180;-76
2024/02/25 02:28:55;;;;;;;1.80;0.70;;;8.40;99.90;;;;;;4899850;29;20181;-75
2024/02/25 02:31:21;;;;;;;3.10;0.60;;;8.40;99.90;;;;;;4916765;29;20166;-75
2024/02/25 02:33:47;;;;;;;1.80;0.60;;;8.40;99.90;;;;;;4916323;29;20216;-75
2024/02/25 02:36:13;;;;;;;1.80;0.67;;;8.40;99.90;;;;;;4915350;29;20182;-75
2024/02/25 02:38:39;;;;;;;1.30;0.60;;;8.40;99.90;;;;;;4916666;29;20177;-75
2024/02/25 02:41:06;;;;;;;1.65;0.70;;;8.40;99.90;;;;;;4899183;29;20647;-75
2024/02/25 02:43:31;;;;;;;1.20;0.50;;;8.40;99.90;;;;;;4916174;29;20205;-75
2024/02/25 02:45:57;;;;;;;1.40;0.60;;;8.30;99.90;;;;;;4916369;29;20182;-75
2024/02/25 02:48:23;;;;;;;1.20;0.50;;;8.30;99.90;;;;;;4915268;29;20809;-76
2024/02/25 02:50:48;;;;;;;1.30;0.50;;;8.30;99.90;;;;;;4916346;29;20602;-76
2024/02/25 02:53:14;;;;;;;1.23;0.60;;;8.30;99.90;;;;;;4914681;29;20212;-76
2024/02/25 02:55:40;;;;;;;1.20;0.50;;;8.30;99.90;;;;;;4914857;29;20197;-76
2024/02/25 02:58:05;;;;;;;1.30;0.50;;;8.30;99.90;;;;;;4915131;29;20181;-76
2024/02/25 03:00:31;;;;;;;1.20;0.50;;;8.30;99.90;;;;;;4915386;29;20185;-78
2024/02/25 03:02:57;;;;;;;1.50;0.57;;;8.30;99.90;;;;;;4915647;29;20629;-77
2024/02/25 03:05:22;;;;;;;1.37;0.60;;;8.30;99.90;;;;;;4916128;29;20580;-77
2024/02/25 03:07:53;;;;;;;2.43;0.60;;;8.30;99.90;;;;;;4915914;29;20265;-75
2024/02/25 03:10:20;;;;;;;1.25;0.50;;;8.30;99.90;;;;;;4914542;29;20205;-75
2024/02/25 03:12:46;;;;;;;1.25;0.57;;;8.30;99.90;;;;;;4915526;29;20178;-75
2024/02/25 03:15:12;;;;;;;1.33;0.60;;;8.30;99.90;;;;;;4914610;29;20567;-75
2024/02/25 03:17:41;;;;;;;1.20;0.50;;;8.30;99.90;;;;;;4887865;29;20260;-75
2024/02/25 03:20:08;;;;;;;1.40;0.60;;;8.30;99.90;;;;;;4893228;29;20185;-75
2024/02/25 03:22:35;;;;;;;1.55;0.60;;;8.30;99.90;;;;;;4896481;29;20182;-75
2024/02/25 03:25:03;;;;;;;1.40;0.60;;;8.30;99.90;;;;;;4915496;29;20213;-75
2024/02/25 03:27:29;;;;;;;1.40;0.60;;;8.30;99.90;;;;;;4914132;29;20182;-75
2024/02/25 03:29:55;;;;;;;4.07;0.65;;;8.30;99.90;;;;;;4914122;29;20233;-74
2024/02/25 03:32:21;;;;;;;2.53;0.60;;;8.30;99.90;;;;;;4898085;29;20217;-75
2024/02/25 03:34:46;;;;;;;1.60;0.60;;;8.40;99.90;;;;;;4914075;29;20633;-75
2024/02/25 03:37:12;;;;;;;1.90;0.50;;;8.40;99.90;;;;;;4915388;29;20241;-75
2024/02/25 03:39:38;;;;;;;1.92;0.60;;;8.40;99.90;;;;;;4913759;29;20269;-75
2024/02/25 03:42:04;;;;;;;1.20;0.50;;;8.50;99.90;;;;;;4914902;29;20269;-75
2024/02/25 03:44:30;;;;;;;1.70;0.60;;;8.50;99.90;;;;;;4898284;29;20202;-75
2024/02/25 03:46:55;;;;;;;1.20;0.50;;;8.50;99.90;;;;;;4913896;29;20605;-75
2024/02/25 03:49:21;;;;;;;1.30;0.60;;;8.40;99.90;;;;;;4913773;29;20653;-75
2024/02/25 03:51:48;;;;;;;1.90;0.57;;;8.50;99.90;;;;;;4913519;29;20216;-75
2024/02/25 03:54:13;;;;;;;1.92;0.50;;;8.50;99.90;;;;;;4914915;29;20198;-76
2024/02/25 03:56:39;;;;;;;1.50;0.60;;;8.50;99.90;;;;;;4907194;29;20281;-76
2024/02/25 03:59:05;;;;;;;1.30;0.60;;;8.50;99.90;;;;;;4909255;29;20700;-76
2024/02/25 04:01:30;;;;;;;1.20;0.50;;;8.40;99.90;;;;;;4913246;29;20185;-76
2024/02/25 04:03:56;;;;;;;1.30;0.60;;;8.40;99.90;;;;;;4907384;29;20269;-75
2024/02/25 04:06:22;;;;;;;1.30;0.60;;;8.50;99.90;;;;;;4915010;29;20597;-77
2024/02/25 04:08:48;;;;;;;1.50;0.60;;;8.50;99.90;;;;;;4914378;29;20254;-77
2024/02/25 04:11:14;;;;;;;1.50;0.60;;;8.50;99.90;;;;;;4913241;29;20201;-77
2024/02/25 04:13:39;;;;;;;1.20;0.50;;;8.50;99.90;;;;;;4911549;29;20549;-77
2024/02/25 04:16:05;;;;;;;1.20;0.60;;;8.50;99.90;;;;;;4914683;29;20177;-77
2024/02/25 04:18:31;;;;;;;1.60;0.60;;;8.50;99.90;;;;;;4913261;29;20178;-77
2024/02/25 04:20:57;;;;;;;1.30;0.57;;;8.50;99.90;;;;;;4912944;29;20689;-77
2024/02/25 04:23:23;;;;;;;1.60;0.80;;;8.50;99.90;;;;;;4913528;29;20221;-77
2024/02/25 04:25:50;;;;;;;1.30;0.70;;;8.50;99.90;;;;;;4914383;29;20211;-77
2024/02/25 04:28:15;;;;;;;1.10;0.50;;;8.50;99.90;;;;;;4913368;29;20526;-77
2024/02/25 04:30:41;;;;;;;1.50;0.53;;;8.50;99.90;;;;;;4914124;29;20209;-78
2024/02/25 04:33:07;;;;;;;1.20;0.50;;;8.50;99.90;;;;;;4913807;29;20201;-78
2024/02/25 04:35:32;;;;;;;1.40;0.60;;;8.50;99.90;;;;;;4897146;29;20192;-78
2024/02/25 04:38:01;;;;;;;1.73;0.60;;;8.40;99.90;;;;;;4914272;29;20204;-76
2024/02/25 04:40:27;;;;;;;2.15;0.70;;;8.40;99.90;;;;;;4914143;29;20269;-75
2024/02/25 04:42:53;;;;;;;1.20;0.50;;;8.30;99.90;;;;;;4913338;29;20704;-76
2024/02/25 04:45:18;;;;;;;1.20;0.60;;;8.30;99.90;;;;;;4913899;29;20185;-76
2024/02/25 04:47:44;;;;;;;1.40;0.60;;;8.30;99.90;;;;;;4912810;29;20192;-76
2024/02/25 04:50:10;;;;;;;1.67;0.63;;;8.20;99.90;;;;;;4893986;29;20202;-76
2024/02/25 04:52:36;;;;;;;1.35;0.50;;;8.20;99.90;;;;;;4911015;29;20189;-76
2024/02/25 04:55:01;;;;;;;1.40;0.67;;;8.20;99.90;;;;;;4912937;29;20567;-76
2024/02/25 04:57:31;;;;;;;1.50;0.60;;;8.20;99.90;;;;;;4897013;29;20181;-76
2024/02/25 04:59:57;;;;;;;1.30;0.60;;;8.20;99.90;;;;;;4914089;29;20264;-75
2024/02/25 05:02:24;;;;;;;1.20;0.50;;;8.20;99.90;;;;;;4913677;29;20945;-76
2024/02/25 05:04:49;;;;;;;1.27;0.60;;;8.30;99.90;;;;;;4913938;29;20206;-76
2024/02/25 05:07:15;;;;;;;1.40;0.60;;;8.30;99.90;;;;;;4909371;29;20193;-76
2024/02/25 05:09:41;;;;;;;1.70;0.60;;;8.30;99.90;;;;;;4911527;29;20221;-75
2024/02/25 05:12:07;;;;;;;1.30;0.60;;;8.30;99.90;;;;;;4913416;29;20174;-76
2024/02/25 05:14:32;;;;;;;1.30;0.60;;;8.30;99.90;;;;;;4912361;29;20201;-76
2024/02/25 05:16:58;;;;;;;1.20;0.50;;;8.30;99.90;;;;;;4913777;29;20261;-76
2024/02/25 05:19:23;;;;;;;1.40;0.50;;;8.30;99.90;;;;;;4912373;29;20178;-76
2024/02/25 05:21:49;;;;;;;1.60;0.50;;;8.30;99.90;;;;;;4912949;29;20185;-76
2024/02/25 05:24:15;;;;;;;1.30;0.50;;;8.40;99.90;;;;;;4910756;29;20873;-76
2024/02/25 05:26:41;;;;;;;1.30;0.50;;;8.40;99.90;;;;;;4913884;29;20663;-76
2024/02/25 05:29:06;;;;;;;1.20;0.50;;;8.40;99.90;;;;;;4916253;29;20696;-76
2024/02/25 05:31:32;;;;;;;1.73;0.70;;;8.40;99.90;;;;;;4899917;29;20653;-76
2024/02/25 05:33:58;;;;;;;1.20;0.50;;;8.40;99.90;;;;;;4917406;29;20197;-76
2024/02/25 05:36:23;;;;;;;1.53;0.50;;;8.40;99.90;;;;;;4917007;29;20185;-76
2024/02/25 05:38:50;;;;;;;1.23;0.60;;;8.50;99.90;;;;;;4915785;29;20691;-76
2024/02/25 05:41:15;;;;;;;1.63;0.60;;;8.50;99.90;;;;;;4917028;29;20201;-76
2024/02/25 05:43:41;;;;;;;1.30;0.60;;;8.50;99.90;;;;;;4916669;29;20237;-76
2024/02/25 05:46:07;;;;;;;1.50;0.50;;;8.50;99.90;;;;;;4916244;29;20192;-75
2024/02/25 05:48:33;;;;;;;1.30;0.57;;;8.50;99.90;;;;;;4917490;29;21214;-75
2024/02/25 05:50:58;;;;;;;1.50;0.67;;;8.50;99.90;;;;;;4916352;29;20201;-75
2024/02/25 05:53:24;;;;;;;3.03;0.70;;;8.50;99.90;;;;;;4915982;29;20253;-75
2024/02/25 05:55:50;;;;;;;3.37;0.60;;;8.50;99.90;;;;;;4917804;29;20181;-76
2024/02/25 05:58:16;;;;;;;1.20;0.50;;;8.50;99.90;;;;;;4900576;29;20647;-76
2024/02/25 06:00:44;;;;;;;1.20;0.60;;;8.50;99.90;;;;;;4900767;29;20193;-76
2024/02/25 06:03:10;;;;;;;2.78;0.50;;;8.50;99.90;;;;;;4915713;29;20189;-76
2024/02/25 06:05:36;;;;;;;1.27;0.60;;;8.50;99.90;;;;;;4916348;29;20181;-74
2024/02/25 06:08:02;;;;;;;1.57;0.60;;;8.50;99.90;;;;;;4917525;29;21150;-74
2024/02/25 06:10:28;;;;;;;1.38;0.60;;;8.50;99.90;;;;;;4917397;29;20213;-74
2024/02/25 06:12:53;;;;;;;1.30;0.57;;;8.50;99.90;;;;;;4915514;29;20186;-74
2024/02/25 06:15:19;;;;;;;1.67;0.60;;;8.50;99.90;;;;;;4916119;29;20181;-74
2024/02/25 06:17:45;;;;;;;1.30;0.50;;;8.60;99.90;;;;;;4912623;29;20178;-76
2024/02/25 06:20:11;;;;;;;1.37;0.70;;;8.60;99.90;;;;;;4894222;29;20182;-75
2024/02/25 06:22:40;;;;;;;1.30;0.60;;;8.60;99.90;;;;;;4914971;29;20210;-75
2024/02/25 06:25:07;;;;;;;1.75;0.57;;;8.60;99.90;;;;;;4915674;29;20181;-75
2024/02/25 06:27:36;;;;;;;2.28;0.60;;;8.60;99.90;;;;;;4915564;29;20182;-74
2024/02/25 06:30:09;;;;;;;1.60;0.70;;;8.60;99.90;;;;;;4896381;29;20217;-74
2024/02/25 06:32:35;;;;;;;3.17;0.52;;;8.60;99.90;;;;;;4915402;29;20640;-75
2024/02/25 06:35:01;;;;;;;1.20;0.50;;;8.60;99.90;;;;;;4899187;29;20330;-75
2024/02/25 06:37:31;;;;;;;1.50;0.60;;;8.60;99.90;;;;;;4916525;29;20261;-75
2024/02/25 06:39:56;;;;;;;1.50;0.60;;;8.60;99.90;;;;;;4914716;29;20189;-75
2024/02/25 06:42:22;;;;;;;2.53;0.70;;;8.60;99.90;;;;;;4914860;29;20683;-75
2024/02/25 06:44:48;;;;;;;1.30;0.60;;;8.60;99.90;;;;;;4915202;29;20632;-75
2024/02/25 06:47:14;;;;;;;1.30;0.50;;;8.60;99.90;;;;;;4915182;29;20532;-74
2024/02/25 06:49:40;;;;;;;1.20;0.50;;;8.60;99.90;;;;;;4916414;29;20202;-74
2024/02/25 06:52:07;;;;;;;2.00;0.70;;;8.60;99.90;;;;;;4914804;29;20174;-75
2024/02/25 06:54:33;;;;;;;1.20;0.50;;;8.60;99.90;;;;;;4916065;29;20185;-75
2024/02/25 06:56:59;;;;;;;1.30;0.50;;;8.60;99.90;;;;;;4912603;29;20648;-76
2024/02/25 06:59:25;;;;;;;1.88;0.50;;;8.60;99.90;;;;;;4916177;29;21147;-76
2024/02/25 07:01:51;;;;;;;1.30;0.50;;;8.60;99.90;;;;;;4911381;29;20193;-76
2024/02/25 07:04:18;;;;;;;3.92;0.60;;;8.70;99.90;;;;;;4914213;29;20624;-76
2024/02/25 07:06:44;;;;;;;1.40;0.68;;;8.60;99.90;;;;;;4911004;29;20964;-75
2024/02/25 07:09:09;;;;;;;1.73;0.60;;;8.70;99.90;;;;;;4922703;29;20249;-76
2024/02/25 07:11:35;;;;;;;1.30;0.60;;;8.70;99.90;;;;;;4912749;29;20548;-74
2024/02/25 07:14:01;;;;;;;1.30;0.60;;;8.70;99.90;;;;;;4914348;29;20201;-75
2024/02/25 07:16:27;;;;;;;1.17;0.50;;;8.70;99.90;;;;;;4914211;29;20208;-74
2024/02/25 07:18:52;;;;;;;1.30;0.60;;;8.70;99.90;;;;;;4913760;29;20173;-74
2024/02/25 07:21:18;;;;;;;1.30;0.60;;;8.80;99.90;;;;;;4912997;29;21119;-74
2024/02/25 07:23:44;;;;;;;1.67;0.50;;;8.80;99.90;;;;;;4904032;29;20749;-74
2024/02/25 07:26:12;;;;;;;1.97;0.60;;;8.80;99.90;;;;;;4897962;29;20265;-75
2024/02/25 07:28:42;;;;;;;1.45;0.75;;;8.80;99.90;;;;;;4912902;29;20325;-75
2024/02/25 07:31:15;;;;;;;1.23;0.52;;;8.80;99.90;;;;;;4913921;29;20288;-75
2024/02/25 07:33:41;;;;;;;1.20;0.50;;;8.80;99.90;;;;;;4913976;29;20341;-74
2024/02/25 07:36:11;;;;;;;1.80;0.60;;;8.80;99.90;;;;;;4907277;29;20177;-76
2024/02/25 07:38:38;;;;;;;1.40;0.50;;;8.90;99.90;;;;;;4916118;29;20169;-76
2024/02/25 07:41:04;;;;;;;1.45;0.70;;;8.90;99.90;;;;;;4916274;29;20185;-75
2024/02/25 07:43:29;;;;;;;1.20;0.50;;;8.90;99.90;;;;;;4899997;29;20205;-76
2024/02/25 07:45:55;;;;;;;1.87;1.07;;;8.80;99.90;;;;;;4916408;29;20660;-76
2024/02/25 07:48:21;;;;;;;1.20;0.50;;;8.80;99.90;;;;;;4914937;29;20272;-76
2024/02/25 07:50:48;;;;;;;1.60;0.65;;;8.80;99.90;;;;;;4913602;29;20657;-76
2024/02/25 07:53:13;;;;;;;1.10;0.50;;;8.70;99.90;;;;;;4914502;29;20572;-76
2024/02/25 07:55:39;;;;;;;2.03;0.60;;;8.70;99.90;;;;;;4915283;29;20199;-76
2024/02/25 07:58:06;;;;;;;1.77;0.50;;;8.80;99.90;;;;;;4915048;29;20176;-76
2024/02/25 08:00:33;;;;;;;1.33;0.60;;;8.80;99.90;;;;;;4913608;29;20538;-76
2024/02/25 08:03:02;;;;;;;1.35;0.50;;;8.80;99.90;;;;;;4913063;29;20186;-78
2024/02/25 08:05:28;;;;;;;2.35;0.60;;;8.80;99.90;;;;;;4914933;29;20184;-75
2024/02/25 08:07:54;;;;;;;1.40;0.50;;;8.80;99.90;;;;;;4913604;29;20626;-75
2024/02/25 08:10:20;;;;;;;1.30;0.67;;;8.90;99.90;;;;;;4914766;29;20719;-76
2024/02/25 08:12:46;;;;;;;1.77;0.52;;;8.90;99.90;;;;;;4912979;29;20180;-76
2024/02/25 08:15:13;;;;;;;1.30;0.60;;;8.90;99.90;;;;;;4914690;29;20185;-76
2024/02/25 08:17:39;;;;;;;2.67;0.60;;;9.00;99.90;;;;;;4913055;29;20230;-76
2024/02/25 08:20:05;;;;;;;1.30;0.50;;;9.10;99.90;;;;;;4911226;29;20218;-75
2024/02/25 08:22:32;;;;;;;1.20;0.50;;;9.20;99.90;;;;;;4908886;29;20737;-75
2024/02/25 08:24:59;;;;;;;1.40;0.50;;;9.30;99.90;;;;;;4913470;29;20224;-75
2024/02/25 08:27:28;;;;;;;1.20;0.52;;;9.40;99.90;;;;;;4913736;29;20170;-75
2024/02/25 08:29:55;;;;;;;2.13;0.60;;;9.60;99.90;;;;;;4911999;29;20265;-75
2024/02/25 08:32:22;;;;;;;1.30;0.50;;;9.70;99.90;;;;;;4914614;29;20178;-75
2024/02/25 08:34:53;;;;;;;1.67;0.50;;;9.80;99.90;;;;;;4913702;29;20197;-75
2024/02/25 08:37:29;;;;;;;1.80;0.60;;;10.00;99.90;;;;;;4913769;29;20178;-75
2024/02/25 08:39:54;;;;;;;1.52;0.60;;;10.20;99.90;;;;;;4913227;29;20232;-74
2024/02/25 08:42:21;;;;;;;2.00;0.50;;;10.30;99.90;;;;;;4908200;29;20272;-75
2024/02/25 08:44:46;;;;;;;1.30;0.50;;;10.50;99.90;;;;;;4897672;29;20198;-75
2024/02/25 08:47:12;;;;;;;1.30;0.50;;;10.60;99.90;;;;;;4914742;29;20188;-75
2024/02/25 08:49:38;;;;;;;1.30;0.50;;;10.70;99.90;;;;;;4912944;29;20208;-75
2024/02/25 08:52:04;;;;;;;2.17;0.60;;;10.80;99.90;;;;;;4912858;29;20813;-75
2024/02/25 08:54:31;;;;;;;1.40;0.60;;;11.00;99.90;;;;;;4908630;29;20634;-75
2024/02/25 08:56:57;;;;;;;1.55;0.75;;;11.20;99.90;;;;;;4912633;29;20191;-75
2024/02/25 08:59:29;;;;;;;1.30;0.50;;;11.40;99.90;;;;;;4913831;29;20198;-75
2024/02/25 09:01:55;;;;;;;1.30;0.50;;;11.50;99.90;;;;;;4913886;29;20555;-75
2024/02/25 09:04:24;;;;;;;1.33;0.57;;;11.70;99.90;;;;;;4912739;29;20692;-75
2024/02/25 09:06:50;;;;;;;1.47;0.50;;;11.90;99.90;;;;;;4912857;29;20617;-74
2024/02/25 09:09:16;;;;;;;1.40;0.60;;;12.50;99.90;;;;;;4912626;29;20682;-74
2024/02/25 09:11:41;;;;;;;1.30;0.50;;;13.40;99.90;;;;;;4912093;29;20178;-75
2024/02/25 09:14:07;;;;;;;1.20;0.50;;;14.00;99.90;;;;;;4912331;29;20193;-75
2024/02/25 09:16:33;;;;;;;1.73;0.40;;;14.30;99.90;;;;;;4897143;29;20188;-75
2024/02/25 09:18:58;;;;;;;1.20;0.40;;;14.50;99.90;;;;;;4904997;29;20196;-75
2024/02/25 09:21:24;;;;;;;1.57;0.50;;;14.60;99.90;;;;;;4912457;29;20182;-75
2024/02/25 09:23:50;;;;;;;1.77;0.50;;;14.60;99.90;;;;;;4911733;29;20691;-75
2024/02/25 09:26:15;;;;;;;1.80;0.70;;;14.60;99.90;;;;;;4912482;29;20189;-75
2024/02/25 09:28:41;;;;;;;1.30;0.50;;;14.50;99.90;;;;;;4913831;29;20182;-75
2024/02/25 09:31:08;;;;;;;1.30;0.50;;;14.40;99.90;;;;;;4913618;29;20213;-75
2024/02/25 09:33:35;;;;;;;1.30;0.50;;;14.50;99.90;;;;;;4912104;29;20683;-75
2024/02/25 09:36:01;;;;;;;1.30;0.50;;;14.60;99.90;;;;;;4913897;29;20656;-75
2024/02/25 09:38:27;;;;;;;1.20;0.50;;;15.10;99.90;;;;;;4912691;29;21395;-75
2024/02/25 09:41:01;;;;;;;2.20;0.97;;;15.80;99.90;;;;;;4910551;29;20885;-75
2024/02/25 09:43:27;;;;;;;1.10;0.40;;;16.70;99.90;;;;;;4911853;29;20626;-75
2024/02/25 09:46:00;;;;;;;1.20;0.50;;;17.60;99.90;;;;;;4912992;29;21151;-75
2024/02/25 09:48:26;;;;;;;1.70;0.50;;;18.80;99.90;;;;;;4896586;29;20649;-75
2024/02/25 09:50:53;;;;;;;1.20;0.40;;;19.60;99.90;;;;;;4911675;29;20641;-75
2024/02/25 09:53:22;;;;;;;1.60;0.50;;;20.10;99.90;;;;;;4912718;29;20233;-75
2024/02/25 09:55:49;;;;;;;1.20;0.40;;;20.50;99.90;;;;;;4913167;29;20694;-75
2024/02/25 09:58:15;;;;;;;1.20;0.40;;;21.10;99.90;;;;;;4913391;29;20613;-76
2024/02/25 10:00:44;;;;;;;1.30;0.50;;;21.60;99.90;;;;;;4912147;29;20926;-75
2024/02/25 10:03:13;;;;;;;1.70;0.50;;;22.00;99.90;;;;;;4911886;29;20633;-75
2024/02/25 10:05:40;;;;;;;1.30;0.40;;;22.30;99.90;;;;;;4908816;29;20697;-75
2024/02/25 10:08:10;;;;;;;1.40;0.50;;;22.70;99.90;;;;;;4911029;29;20598;-75
2024/02/25 10:10:36;;;;;;;1.40;0.53;;;23.10;99.90;;;;;;4913520;29;20740;-75
2024/02/25 10:13:04;;;;;;;1.83;0.50;;;23.40;99.90;;;;;;4914964;29;20684;-75
2024/02/25 10:15:30;;;;;;;1.67;0.40;;;23.30;99.90;;;;;;4915657;29;20624;-75
2024/02/25 10:17:56;;;;;;;1.93;1.03;;;23.40;99.90;;;;;;4915474;29;20590;-76
2024/02/25 10:20:22;;;;;;;1.40;0.40;;;23.40;99.90;;;;;;4915582;29;21116;-75
2024/02/25 10:23:04;;;;;;;1.67;0.50;;;23.30;99.90;;;;;;4914855;29;20186;-75
2024/02/25 10:25:29;;;;;;;1.77;0.50;;;23.10;99.90;;;;;;4894019;29;20189;-75
2024/02/25 10:28:16;;;;;;;1.30;0.40;;;22.90;99.90;;;;;;4915293;29;20673;-75
2024/02/25 10:30:58;;;;;;;3.57;0.50;;;22.50;99.90;;;;;;4916477;29;20213;-75
2024/02/25 10:33:24;;;;;;;2.27;0.50;;;22.30;99.90;;;;;;4909723;29;20655;-75
2024/02/25 10:35:50;;;;;;;1.40;0.60;;;22.00;99.90;;;;;;4916496;29;20612;-75
2024/02/25 10:38:19;;;;;;;1.90;0.50;;;21.60;99.40;;;;;;4908836;29;20170;-75
2024/02/25 10:40:45;;;;;;;1.40;0.40;;;21.30;99.00;;;;;;4896174;29;20598;-75
2024/02/25 10:43:13;;;;;;;1.40;0.50;;;21.00;98.70;;;;;;4913950;29;20633;-75
2024/02/25 10:45:42;;;;;;;4.97;0.70;;;20.70;97.60;;;;;;4915338;29;20601;-75
2024/02/25 10:48:13;;;;;;;1.40;0.50;;;20.40;98.10;;;;;;4915144;29;21139;-75
2024/02/25 10:50:40;;;;;;;1.60;0.60;;;20.20;98.40;;;;;;4916299;29;20640;-75
2024/02/25 10:53:10;;;;;;;1.70;0.60;;;19.90;98.00;;;;;;4914204;29;20653;-75
2024/02/25 10:55:37;;;;;;;1.40;0.60;;;19.70;97.60;;;;;;4915108;29;20593;-75
2024/02/25 10:58:05;;;;;;;1.80;0.50;;;19.50;98.70;;;;;;4907239;29;20603;-75
2024/02/25 11:00:31;;;;;;;1.50;0.60;;;19.50;99.80;;;;;;4914998;29;20646;-75
2024/02/25 11:02:58;;;;;;;1.50;0.57;;;19.50;99.90;;;;;;4915779;29;20696;-75
2024/02/25 11:05:24;;;;;;;1.73;0.50;;;19.60;99.90;;;;;;4911761;29;20202;-74
2024/02/25 11:07:50;;;;;;;2.10;0.50;;;19.60;99.10;;;;;;4914625;29;21167;-77
2024/02/25 11:10:20;;;;;;;1.23;0.40;;;19.30;98.00;;;;;;4914573;29;20228;-76
2024/02/25 11:12:48;;;;;;;1.33;0.50;;;19.10;97.20;;;;;;4914042;29;20689;-76
2024/02/25 11:15:28;;;;;;;3.00;0.57;;;18.90;98.10;;;;;;4898989;29;20654;-75
2024/02/25 11:17:55;;;;;;;1.90;0.60;;;18.80;97.60;;;;;;4915506;29;20597;-76
2024/02/25 11:20:22;;;;;;;1.80;0.50;;;18.60;97.50;;;;;;4909466;29;20593;-75
2024/02/25 11:22:50;;;;;;;1.40;0.50;;;18.40;97.40;;;;;;4913305;29;20597;-75
2024/02/25 11:25:34;;;;;;;1.60;0.60;;;18.10;97.20;;;;;;4915705;29;20616;-76
2024/02/25 11:28:05;;;;;;;2.10;0.60;;;18.00;96.40;;;;;;4914715;29;21282;-76
2024/02/25 11:30:43;;;;;;;1.30;0.50;;;17.90;96.80;;;;;;4915786;29;21029;-75
2024/02/25 11:33:35;;;;;;;2.53;0.60;;;17.60;94.40;;;;;;4913744;29;20618;-75
2024/02/25 11:36:05;;;;;;;1.30;0.50;;;17.40;95.60;;;;;;4914592;29;21169;-75
2024/02/25 11:38:32;;;;;;;1.43;0.50;;;17.20;97.10;;;;;;4915501;29;20598;-75
2024/02/25 11:40:59;;;;;;;1.53;0.50;;;17.10;97.30;;;;;;4914128;29;20606;-75
2024/02/25 11:43:25;;;;;;;1.30;0.40;;;17.10;97.40;;;;;;4914182;29;20720;-76
2024/02/25 11:45:51;;;;;;;2.37;0.70;;;16.90;96.90;;;;;;4915908;29;20639;-77
2024/02/25 11:48:18;;;;;;;1.60;0.50;;;16.80;96.50;;;;;;4915625;29;20677;-77
2024/02/25 11:50:44;;;;;;;1.30;0.50;;;16.50;96.10;;;;;;4914248;29;20689;-75
2024/02/25 11:53:10;;;;;;;2.53;0.60;;;16.40;96.30;;;;;;4914185;29;21242;-75
2024/02/25 11:55:36;;;;;;;1.97;0.70;;;16.20;96.40;;;;;;4914289;29;20586;-75
2024/02/25 11:58:02;;;;;;;1.67;0.60;;;16.10;96.30;;;;;;4914291;29;20181;-76
2024/02/25 12:00:29;;;;;;;1.53;0.47;;;16.00;96.20;;;;;;4910254;29;20273;-76
2024/02/25 12:02:56;;;;;;;1.63;0.50;;;15.80;96.00;;;;;;4911148;29;20597;-75
2024/02/25 12:05:21;;;;;;;1.90;0.60;;;15.80;97.00;;;;;;4914045;29;20592;-75
2024/02/25 12:07:58;;;;;;;1.90;0.50;;;15.80;97.50;;;;;;4898314;29;20601;-75
2024/02/25 12:10:25;;;;;;;1.93;0.60;;;15.80;97.10;;;;;;4913771;29;20649;-75
2024/02/25 12:12:52;;;;;;;1.30;0.40;;;15.80;97.50;;;;;;4913381;29;20656;-75
2024/02/25 12:15:19;;;;;;;1.30;0.40;;;15.80;97.00;;;;;;4914018;29;20621;-75
2024/02/25 12:17:45;;;;;;;2.10;0.40;;;15.70;96.80;;;;;;4898187;29;20672;-75
2024/02/25 12:20:13;;;;;;;2.43;0.50;;;15.50;96.90;;;;;;4914737;29;21026;-75
2024/02/25 12:22:39;;;;;;;2.43;0.60;;;15.50;96.70;;;;;;4914603;29;20585;-75
2024/02/25 12:25:06;;;;;;;1.90;0.60;;;15.50;96.90;;;;;;4905988;29;20681;-75
2024/02/25 12:27:33;;;;;;;2.80;0.40;;;15.40;96.70;;;;;;4908560;29;20585;-75
2024/02/25 12:30:00;;;;;;;2.60;0.70;;;15.40;97.00;;;;;;4914792;29;20660;-75
2024/02/25 12:32:27;;;;;;;1.83;0.50;;;15.40;97.10;;;;;;4897655;29;20677;-74
2024/02/25 12:34:52;;;;;;;1.83;0.50;;;15.40;97.20;;;;;;4913853;29;20685;-75
2024/02/25 12:37:22;;;;;;;1.47;0.53;;;15.40;97.40;;;;;;4897805;29;20602;-75
2024/02/25 12:39:49;;;;;;;2.60;0.60;;;15.30;97.30;;;;;;4914761;29;20590;-75
2024/02/25 12:42:16;;;;;;;1.43;0.50;;;15.30;97.40;;;;;;4914138;29;20661;-75
2024/02/25 12:44:42;;;;;;;2.27;0.60;;;15.30;97.30;;;;;;4913490;29;20975;-75
2024/02/25 12:47:10;;;;;;;2.30;0.57;;;15.30;97.20;;;;;;4913356;29;20597;-75
2024/02/25 12:49:36;;;;;;;1.90;0.60;;;15.20;97.20;;;;;;4914047;29;20636;-74
2024/02/25 12:52:03;;;;;;;1.40;0.40;;;15.20;97.10;;;;;;4912615;29;20605;-75